Marius Paulauskas

Scout - Trakai
22 Feb 2028
Dienstag
Verarbeitung

Persönlichkeit

Anpassungsfähigkeit (4) Ehrgeiz (10) Kontroverse (9) Loyalität (6) Druck (1) Professionalität (9) Fairness (13) Temperament (14)

Profil

Trainerstil Demokratisch
Lizenz Nationale B
Entschlossenheit 4
Menschenführung 3
Motivation 6
Disziplin 8
Arbeitszufriedenheit
100%
Ermüdung
0%
Rolle Scout
Gehalt 11.5K p/W
Vertrag 14.03.2030

Leistung

Verhalten Gut
Trainingseffektivität
21%
Spielerentwicklung
25%
Verletzungsprävention
45%
Taktische Umsetzung
20%

Letzte Ereignisse

Nahm an einer Scouting-Besprechung teil jetzt
Nahm an einer Scouting-Besprechung teil jetzt
Nahm an einer Scouting-Besprechung teil 7T her
Nahm an einer Scouting-Besprechung teil 7T her
Nahm an einer Scouting-Besprechung teil 7T her
Nahm an einer Scouting-Besprechung teil 7T her
Nahm an einer Scouting-Besprechung teil 14T her
Nahm an einer Scouting-Besprechung teil 14T her

Aktuell beobachtet

93
Spieler Verein Status Fähigkeit Vertrauen Beobachtet Zuletzt beobachtet Letzte Stimme
Steve Lawson Suduva Aktiv 92 / 70 51% 1 24.01.2028 -
Tautvydas Burdzilauskas Kauno Zalgiris Aktiv 80 / 76 51% 1 17.01.2028 -
Mikhail Zabotkin Druzhba Aktiv 84 / 80 40% 1 01.01.2028 -
Juan Rocca Gimnasia y Tiro Aktiv 114 / 102 40% 7 31.12.2027 -
Juan Camilo Mosquera Atletico Bucaramanga Aktiv 114 / 106 40% 2 31.12.2027 -
Kirill Kirilenko Dnepr Mogilev Aktiv 82 / 87 40% 2 29.12.2027 -
Alexandr Saplinov Volga Aktiv 94 / 94 40% 2 29.12.2027 -
Georgy Melkadze Akhmat Grozny Aktiv 110 / 111 40% 1 28.12.2027 -
Kirill Zinovich Dinamo Makhachkala Aktiv 87 / 90 40% 1 28.12.2027 -
Braian Aranda Agropecuario Argentino Aktiv 108 / 113 40% 1 28.12.2027 -
Eric Ramírez Llaneros Aktiv 114 / 121 40% 3 26.12.2027 -
Kerfala Cissoko Rodina Aktiv 106 / 116 40% 1 26.12.2027 -
Daniil Motorin Rubin Aktiv 87 / 91 40% 2 24.12.2027 -
Leon Sabua Fakel Aktiv 109 / 111 40% 2 24.12.2027 -
Oliver Jürgens Lida Aktiv 99 / 98 40% 2 23.12.2027 -
Agustín Gallo Tristán Suárez Aktiv 117 / 111 40% 7 22.12.2027 -
Denis Mironov Shinnik Aktiv 85 / 87 40% 1 22.12.2027 -
Santiago Vera Almirante Brown Aktiv 123 / 107 40% 1 22.12.2027 -
Matías Bergara Nueva Chicago Aktiv 117 / 126 40% 1 21.12.2027 Mehr Infos nötig
Facundo Castelli Estudiantes Aktiv 120 / 110 40% 2 18.12.2027 -
Richard Figueroa Deportivo Lara Aktiv 108 / 104 40% 7 18.12.2027 -
Jonathan Cañete Portuguesa Aktiv 106 / 105 40% 5 17.12.2027 -
Agustín Módica Gimnasia y Esgrima Aktiv 116 / 112 40% 3 17.12.2027 -
Federico Bisanz Atlanta Aktiv 113 / 111 40% 1 17.12.2027 -
Kirill Tsepenkov Dnepr Mogilev Aktiv 100 / 108 40% 4 16.12.2027 -
Slobodan Tedić Akron Aktiv 113 / 119 40% 1 16.12.2027 -
Santiago Sala Güemes Aktiv 111 / 120 40% 2 15.12.2027 -
Georgy Gongadze Ufa Aktiv 95 / 92 40% 1 13.12.2027 -
Joseph Atule Barau Aktiv 91 / 104 40% 3 12.12.2027 -
Daniil Kondrakov KDV Tomsk Aktiv 87 / 84 40% 1 12.12.2027 -
Steven Alfred Torpedo-BelAZ Aktiv 100 / 110 40% 2 10.12.2027 -
Gafar Saka Plateau United Aktiv 107 / 83 40% 2 10.12.2027 -
Duvan Rangel La Equidad Aktiv 137 / 137 40% 5 10.12.2027 -
Matías Samaniego Talleres Aktiv 89 / 94 40% 2 08.12.2027 -
Mikhail Alexandrov Dinamo Brest Aktiv 100 / 98 40% 1 08.12.2027 -
Luca Franco Arsenal Aktiv 111 / 105 40% 4 07.12.2027 -
Sebastián Cocimano Nueva Chicago Aktiv 110 / 109 40% 2 07.12.2027 -
Matías Machado Racing Aktiv 113 / 105 40% 1 03.12.2027 -
Vladislav Fedosov Slutsk Aktiv 101 / 83 40% 3 30.11.2027 -
Kamran Aliev SKA Khabarovsk Aktiv 111 / 101 40% 1 30.11.2027 -
Ronny Maza Aragua Aktiv 93 / 105 40% 4 29.11.2027 -
Elmer Arunta Bendel Insurance Aktiv 72 / 77 40% 1 29.11.2027 -
Grenik Petrosyan Torpedo-BelAZ Aktiv 92 / 96 40% 1 28.11.2027 -
Javier Martínez Almirante Brown Aktiv 110 / 104 40% 2 27.11.2027 -
Juan Mendoza Güemes Aktiv 114 / 103 40% 2 26.11.2027 -
Martín Campos Ferro Carril Oeste Aktiv 111 / 117 40% 2 25.11.2027 -
Iñaki Larthirigoyen San Telmo Aktiv 129 / 127 40% 1 25.11.2027 -
Junior Paredes Trujillanos Aktiv 114 / 110 40% 3 22.11.2027 -
Maxim Kravtsov Neman Aktiv 83 / 102 40% 1 21.11.2027 -
Gianluca Pugliese Güemes Aktiv 107 / 105 40% 5 19.11.2027 -
Anton Lukashov Slavia Mozyr Aktiv 110 / 96 40% 1 18.11.2027 -
Tomás Ferreyra Defensores Unidos Aktiv 110 / 120 40% 1 17.11.2027 -
Ezekiel Edidiong Enyimba Aktiv 94 / 75 40% 3 15.11.2027 -
Ramiro Balbuena Nueva Chicago Aktiv 118 / 112 40% 1 14.11.2027 -
Johan Campaña Patriotas Aktiv 102 / 113 40% 1 12.11.2027 -
Lucas Carrizo Plaza Colonia Aktiv 118 / 116 40% 3 11.11.2027 -
Miguel Ceccotti Güemes Aktiv 102 / 106 40% 1 10.11.2027 -
Gustavo Rodriguez Valledupar Aktiv 109 / 97 40% 1 06.11.2027 -
Radivoj Bosić Vitebsk Aktiv 107 / 99 40% 1 05.11.2027 -
Alexey Antilevskiy Slavia Mozyr Aktiv 86 / 102 40% 1 02.11.2027 -
Andrey Solovey Slavia Mozyr Aktiv 90 / 105 40% 1 31.10.2027 -
Marco Miori Alvarado Aktiv 101 / 116 40% 1 31.10.2027 -
Denis Grechikho Dinamo Brest Aktiv 108 / 100 40% 1 31.10.2027 -
Enzo Acosta Estudiantes Aktiv 124 / 118 40% 1 31.10.2027 -
Evgeniy Shevchenko Slavia Mozyr Aktiv 87 / 86 40% 2 23.10.2027 -
Nikita Golub Belshina Aktiv 92 / 81 40% 1 22.10.2027 -
Matías Viguet Maipú Aktiv 107 / 101 40% 1 22.10.2027 -
Armando Preciado Deportes Quindio Aktiv 87 / 87 40% 1 22.10.2027 -
Nicolás Heiz Maipú Aktiv 102 / 103 40% 2 14.10.2027 -
Maximiliano Meléndez Chacarita Juniors Aktiv 111 / 126 40% 1 14.10.2027 -
Alfred Mazurich Lida Aktiv 86 / 85 40% 1 14.10.2027 -
Abel Argañaraz Gimnasia y Esgrima Aktiv 97 / 102 40% 2 11.10.2027 -
Vladislav Lozhkin Dinamo Brest Aktiv 86 / 91 40% 2 03.10.2027 -
Timofey Simanenka Gomel Aktiv 98 / 93 40% 1 03.10.2027 -
Santiago Apa All Boys Aktiv 123 / 102 40% 2 01.10.2027 -
Facundo Ardiles Estudiantes Aktiv 105 / 107 40% 1 28.09.2027 -
Malick Touré Onze Createurs Aktiv 105 / 106 40% 1 28.09.2027 -
Ramón González Almirante Brown Aktiv 108 / 107 40% 1 24.09.2027 -
Chisom Ngomere Kwara United Aktiv 95 / 89 40% 1 24.09.2027 -
Juan Pablo Barinaga Patronato Aktiv 117 / 117 40% 1 21.09.2027 Mehr Infos nötig
Abel Bustos Racing Aktiv 116 / 121 40% 1 21.09.2027 -
Danila Shilov HIFK Aktiv 75 / 99 40% 1 20.09.2027 -
Daouda Natama Minsk Aktiv 85 / 95 40% 1 16.09.2027 -
Jesús Amarilla Naftan Aktiv 99 / 102 40% 1 14.09.2027 -
Gabriel Otero Llaneros Aktiv 114 / 99 40% 1 13.09.2027 -
Luis Ferraresi Atletico Venezuela Aktiv 87 / 97 40% 1 11.09.2027 -
Augusto Berrondo Tristán Suárez Aktiv 101 / 115 40% 1 08.09.2027 -
Malick Traoré Onze Createurs Aktiv 94 / 92 40% 1 06.09.2027 -
Eduardas Jurjonas Kauno Zalgiris Verhandlung 72 / 68 51% 1 28.06.2027 Beobachten
Ettore Gliozzi Mantova Aktiv 120 / 135 40% 1 03.06.2027 -
Saulius Sernas Utenis Aktiv 61 / 50 48% 1 31.08.2026 -
Ignas Cernych Aktiv 79 / 72 48% 1 17.08.2026 -
Vladislav Bragin SKA Khabarovsk Aktiv 76 / 97 40% 1 01.08.2026 -